Time;durP1;ratioP1;P1;durP2;ratioP2;P2;SDS_P1;SDS_P2;PMS_P1;PMS_P2;Temp;Humidity;BMP_temperature;BMP_pressure;BME280_temperature;BME280_humidity;BME280_pressure;Samples;Min_cycle;Max_cycle;Signal;HPM_P1;HPM_P2
2021/07/11 00:00:44;;;;;;;;;;;17.50;99.90;;;;;;5073072;28;20430;-91
2021/07/11 00:03:10;;;;;;;;;;;17.50;99.90;;;;;;5072798;28;19932;-91
2021/07/11 00:05:36;;;;;;;;;;;17.40;99.90;;;;;;5055876;28;19956;-91
2021/07/11 00:08:02;;;;;;;;;;;17.40;99.90;;;;;;5090137;28;19977;-91
2021/07/11 00:10:27;;;;;;;;;;;17.40;99.90;;;;;;5089910;28;19924;-90
2021/07/11 00:12:55;;;;;;;;;;;17.40;99.90;;;;;;5089758;28;19925;-91
2021/07/11 00:15:22;;;;;;;;;;;17.40;99.90;;;;;;5074109;28;19925;-91
2021/07/11 00:17:49;;;;;;;;;;;17.40;99.90;;;;;;5089675;28;20390;-91
2021/07/11 00:20:15;;;;;;;;;;;17.40;99.90;;;;;;5089387;28;20016;-91
2021/07/11 00:22:41;;;;;;;;;;;17.40;99.90;;;;;;5089000;28;19924;-91
2021/07/11 00:25:07;;;;;;;;;;;17.30;99.90;;;;;;5088902;28;19928;-91
2021/07/11 00:27:33;;;;;;;;;;;17.30;99.90;;;;;;5072814;28;19927;-91
2021/07/11 00:29:59;;;;;;;;;;;17.30;99.90;;;;;;5089291;28;19978;-90
2021/07/11 00:32:25;;;;;;;;;;;17.30;99.90;;;;;;5072374;28;19920;-91
2021/07/11 00:34:50;;;;;;;;;;;17.30;99.90;;;;;;5073373;28;19952;-91
2021/07/11 00:37:16;;;;;;;;;;;17.30;99.90;;;;;;5055438;28;19925;-90
2021/07/11 00:39:42;;;;;;;;;;;17.30;99.90;;;;;;5052545;28;20291;-91
2021/07/11 00:42:13;;;;;;;;;;;17.30;99.90;;;;;;5062681;28;19925;-91
2021/07/11 00:44:39;;;;;;;;;;;17.20;99.90;;;;;;5068875;28;19956;-91
2021/07/11 00:47:05;;;;;;;;;;;17.20;99.90;;;;;;5052606;28;19967;-91
2021/07/11 00:49:30;;;;;;;;;;;17.20;99.90;;;;;;5051723;28;20015;-91
2021/07/11 00:51:56;;;;;;;;;;;17.20;99.90;;;;;;5053359;28;19931;-91
2021/07/11 00:54:22;;;;;;;;;;;17.20;99.90;;;;;;5051984;28;19975;-91
2021/07/11 00:56:48;;;;;;;;;;;17.20;99.90;;;;;;5053635;28;20439;-91
2021/07/11 00:59:14;;;;;;;;;;;17.20;99.90;;;;;;5071649;28;19925;-91
2021/07/11 01:01:44;;;;;;;;;;;17.20;99.90;;;;;;5055777;28;20015;-91
2021/07/11 01:04:13;;;;;;;;;;;17.20;99.90;;;;;;5071446;28;19925;-91
2021/07/11 01:06:40;;;;;;;;;;;17.20;99.90;;;;;;5064764;28;20621;-91
2021/07/11 01:09:08;;;;;;;;;;;17.20;99.90;;;;;;5085220;28;19924;-91
2021/07/11 01:11:45;;;;;;;;;;;17.20;99.90;;;;;;5085231;28;19947;-91
2021/07/11 01:14:14;;;;;;;;;;;17.20;99.90;;;;;;5085149;28;20347;-91
2021/07/11 01:16:46;;;;;;;;;;;17.20;99.90;;;;;;5068347;28;19952;-91
2021/07/11 01:19:42;;;;;;;;;;;17.20;99.90;;;;;;5084999;28;19931;-89
2021/07/11 01:22:10;;;;;;;;;;;17.10;99.90;;;;;;5030029;28;19932;-91
2021/07/11 01:24:37;;;;;;;;;;;17.10;99.90;;;;;;5051575;28;19920;-91
2021/07/11 01:27:04;;;;;;;;;;;17.10;99.90;;;;;;5084443;28;20455;-91
2021/07/11 01:29:30;;;;;;;;;;;17.10;99.90;;;;;;5068119;28;19928;-91
2021/07/11 01:31:56;;;;;;;;;;;17.00;99.90;;;;;;5067651;28;20016;-90
2021/07/11 01:34:22;;;;;;;;;;;17.10;99.90;;;;;;5059287;28;19990;-91
2021/07/11 01:36:49;;;;;;;;;;;17.10;99.90;;;;;;5102192;28;19943;-92
2021/07/11 01:39:14;;;;;;;;;;;17.00;99.90;;;;;;5054564;28;19971;-90
2021/07/11 01:41:43;;;;;;;;;;;17.00;99.90;;;;;;5087962;28;19920;-91
2021/07/11 01:44:10;;;;;;;;;;;17.00;99.90;;;;;;5087852;28;19928;-91
2021/07/11 01:46:38;;;;;;;;;;;17.00;99.90;;;;;;5105488;28;19942;-91
2021/07/11 01:49:04;;;;;;;;;;;17.00;99.90;;;;;;5071339;28;19931;-91
2021/07/11 01:51:30;;;;;;;;;;;17.00;99.90;;;;;;5071031;28;20379;-90
2021/07/11 01:53:55;;;;;;;;;;;17.00;99.90;;;;;;5072188;28;20383;-91
2021/07/11 01:56:21;;;;;;;;;;;17.00;99.90;;;;;;5054382;28;20015;-91
2021/07/11 01:58:47;;;;;;;;;;;16.90;99.90;;;;;;5071069;28;19925;-90
2021/07/11 02:01:14;;;;;;;;;;;16.90;99.90;;;;;;5087970;28;19934;-91
2021/07/11 02:03:41;;;;;;;;;;;16.90;99.90;;;;;;5088001;28;19967;-92
2021/07/11 02:06:08;;;;;;;;;;;16.90;99.90;;;;;;5087465;28;20041;-91
2021/07/11 02:08:35;;;;;;;;;;;16.90;99.90;;;;;;5071517;28;19927;-91
2021/07/11 02:11:01;;;;;;;;;;;16.90;99.90;;;;;;5070880;28;19952;-91
2021/07/11 02:13:28;;;;;;;;;;;16.90;99.90;;;;;;5069256;28;19968;-90
2021/07/11 02:15:57;;;;;;;;;;;16.80;99.90;;;;;;5086144;28;20034;-90
2021/07/11 02:18:26;;;;;;;;;;;16.80;99.90;;;;;;5087840;28;19921;-91
2021/07/11 02:20:54;;;;;;;;;;;16.80;99.90;;;;;;5071850;28;20183;-91
2021/07/11 02:23:24;;;;;;;;;;;16.80;99.90;;;;;;5087507;28;19924;-91
2021/07/11 02:25:50;;;;;;;;;;;16.80;99.90;;;;;;5087404;28;19924;-91
2021/07/11 02:28:16;;;;;;;;;;;16.80;99.90;;;;;;5074054;28;20380;-91
2021/07/11 02:30:51;;;;;;;;;;;16.80;99.90;;;;;;5050353;28;19924;-92
2021/07/11 02:33:18;;;;;;;;;;;16.80;99.90;;;;;;5050802;28;20399;-91
2021/07/11 02:35:45;;;;;;;;;;;16.80;99.90;;;;;;5067138;28;19925;-91
2021/07/11 02:38:12;;;;;;;;;;;16.70;99.90;;;;;;5071337;28;20319;-90
2021/07/11 02:40:38;;;;;;;;;;;16.70;99.90;;;;;;5070788;28;19928;-91
2021/07/11 02:43:08;;;;;;;;;;;16.80;99.90;;;;;;5087315;28;19928;-91
2021/07/11 02:45:35;;;;;;;;;;;16.70;99.90;;;;;;5070636;28;20019;-91
2021/07/11 02:48:01;;;;;;;;;;;16.70;99.90;;;;;;5071172;28;19920;-91
2021/07/11 02:50:28;;;;;;;;;;;16.70;99.90;;;;;;5091162;28;19962;-91
2021/07/11 02:52:55;;;;;;;;;;;16.70;99.90;;;;;;5091087;28;19921;-91
2021/07/11 02:55:26;;;;;;;;;;;16.70;99.90;;;;;;5091072;28;19920;-90
2021/07/11 02:57:54;;;;;;;;;;;16.70;99.90;;;;;;5073940;28;19936;-94
2021/07/11 03:00:19;;;;;;;;;;;16.70;99.90;;;;;;5074340;28;19920;-91
2021/07/11 03:02:46;;;;;;;;;;;16.70;99.90;;;;;;5074098;28;19921;-91
2021/07/11 03:05:13;;;;;;;;;;;16.70;99.90;;;;;;5089960;28;20388;-91
2021/07/11 03:07:40;;;;;;;;;;;16.70;99.90;;;;;;5071665;28;19982;-91
2021/07/11 03:10:07;;;;;;;;;;;16.70;99.90;;;;;;5054221;28;19921;-90
2021/07/11 03:12:35;;;;;;;;;;;16.70;99.90;;;;;;5070603;28;19921;-91
2021/07/11 03:15:04;;;;;;;;;;;16.70;99.90;;;;;;5054674;28;19929;-91
2021/07/11 03:17:30;;;;;;;;;;;16.70;99.90;;;;;;5054057;28;19932;-91
2021/07/11 03:19:56;;;;;;;;;;;16.70;99.90;;;;;;5053999;28;20573;-91
2021/07/11 03:22:23;;;;;;;;;;;16.70;99.90;;;;;;5053818;28;19944;-91
2021/07/11 03:24:49;;;;;;;;;;;16.60;99.90;;;;;;5054094;28;19924;-91
2021/07/11 03:27:16;;;;;;;;;;;16.60;99.90;;;;;;5054053;28;20277;-91
2021/07/11 03:29:53;;;;;;;;;;;16.60;99.90;;;;;;5053748;28;19928;-91
2021/07/11 03:32:20;;;;;;;;;;;16.60;99.90;;;;;;5054703;28;20376;-91
2021/07/11 03:34:50;;;;;;;;;;;16.60;99.90;;;;;;5070222;28;19929;-91
2021/07/11 03:37:17;;;;;;;;;;;16.60;99.90;;;;;;5065528;28;20912;-90
2021/07/11 03:39:44;;;;;;;;;;;16.60;99.90;;;;;;5090233;28;20294;-91
2021/07/11 03:42:10;;;;;;;;;;;16.60;99.90;;;;;;5073686;28;19924;-91
2021/07/11 03:44:37;;;;;;;;;;;16.60;99.90;;;;;;5090660;28;19916;-90
2021/07/11 03:47:06;;;;;;;;;;;16.60;99.90;;;;;;5073744;28;19933;-90
2021/07/11 03:49:32;;;;;;;;;;;16.60;99.90;;;;;;5090308;28;19921;-91
2021/07/11 03:52:03;;;;;;;;;;;16.60;99.90;;;;;;5073091;28;20027;-91
2021/07/11 03:54:29;;;;;;;;;;;16.60;99.90;;;;;;5090127;28;19928;-91
2021/07/11 03:56:55;;;;;;;;;;;16.60;99.90;;;;;;5089870;28;19935;-91
2021/07/11 03:59:21;;;;;;;;;;;16.60;99.90;;;;;;5072131;28;19943;-91
2021/07/11 04:01:48;;;;;;;;;;;16.60;99.90;;;;;;5072716;28;19924;-91
2021/07/11 04:04:18;;;;;;;;;;;16.60;99.90;;;;;;5090350;28;20687;-91
2021/07/11 04:06:46;;;;;;;;;;;16.60;99.90;;;;;;5087690;28;20268;-91
2021/07/11 04:09:15;;;;;;;;;;;16.60;99.90;;;;;;5089749;28;19960;-90
2021/07/11 04:11:40;;;;;;;;;;;16.60;99.90;;;;;;5089491;28;19970;-91
2021/07/11 04:14:06;;;;;;;;;;;16.60;99.90;;;;;;5072989;28;19958;-91
2021/07/11 04:16:34;;;;;;;;;;;16.60;99.90;;;;;;5073138;28;19924;-91
2021/07/11 04:19:00;;;;;;;;;;;16.60;99.90;;;;;;5072604;28;19928;-91
2021/07/11 04:21:27;;;;;;;;;;;16.60;99.90;;;;;;5106307;28;19944;-91
2021/07/11 04:23:56;;;;;;;;;;;16.60;99.90;;;;;;5089547;28;19927;-91
2021/07/11 04:26:26;;;;;;;;;;;16.60;99.90;;;;;;5089472;28;19925;-91
2021/07/11 04:28:52;;;;;;;;;;;16.60;99.90;;;;;;5106496;28;19921;-91
2021/07/11 04:31:18;;;;;;;;;;;16.70;99.90;;;;;;5055479;28;19920;-90
2021/07/11 04:33:47;;;;;;;;;;;16.70;99.90;;;;;;5106472;28;20019;-90
2021/07/11 04:36:13;;;;;;;;;;;16.70;99.90;;;;;;5105885;28;19951;-91
2021/07/11 04:38:39;;;;;;;;;;;16.70;99.90;;;;;;5074506;28;19929;-91
2021/07/11 04:41:06;;;;;;;;;;;16.70;99.90;;;;;;5069124;28;19924;-90
2021/07/11 04:43:32;;;;;;;;;;;16.70;99.90;;;;;;5052388;28;19948;-91
2021/07/11 04:45:58;;;;;;;;;;;16.70;99.90;;;;;;5068867;28;19925;-91
2021/07/11 04:48:24;;;;;;;;;;;16.70;99.90;;;;;;5035841;28;20719;-91
2021/07/11 04:50:50;;;;;;;;;;;16.70;99.90;;;;;;5068920;28;19999;-91
2021/07/11 04:53:16;;;;;;;;;;;16.80;99.90;;;;;;5051602;28;19926;-91
2021/07/11 04:55:45;;;;;;;;;;;16.70;99.90;;;;;;5052028;28;19963;-91
2021/07/11 04:58:12;;;;;;;;;;;16.80;99.90;;;;;;5068343;28;20040;-91
2021/07/11 05:00:37;;;;;;;;;;;16.80;99.90;;;;;;5051903;28;19921;-90
2021/07/11 05:03:03;;;;;;;;;;;16.80;99.90;;;;;;5068374;28;19986;-91
2021/07/11 05:05:29;;;;;;;;;;;16.80;99.90;;;;;;5053636;28;19943;-91
2021/07/11 05:07:54;;;;;;;;;;;16.80;99.90;;;;;;5054706;28;19925;-91
2021/07/11 05:10:20;;;;;;;;;;;16.80;99.90;;;;;;5035162;28;20517;-91
2021/07/11 05:12:46;;;;;;;;;;;16.90;99.90;;;;;;5067735;28;20624;-92
2021/07/11 05:15:12;;;;;;;;;;;16.90;99.90;;;;;;5067792;28;19943;-91
2021/07/11 05:17:37;;;;;;;;;;;16.90;99.90;;;;;;5088909;28;19920;-91
2021/07/11 05:20:04;;;;;;;;;;;16.90;99.90;;;;;;5055181;28;20385;-91
2021/07/11 05:22:31;;;;;;;;;;;17.00;99.90;;;;;;5088090;28;19928;-91
2021/07/11 05:24:57;;;;;;;;;;;17.00;99.90;;;;;;5087413;28;19921;-91
2021/07/11 05:27:23;;;;;;;;;;;17.00;99.90;;;;;;5070232;28;19924;-90
2021/07/11 05:29:48;;;;;;;;;;;17.00;99.90;;;;;;5070717;28;19920;-90
2021/07/11 05:32:14;;;;;;;;;;;17.00;99.90;;;;;;5071417;28;19946;-91
2021/07/11 05:34:40;;;;;;;;;;;17.00;99.90;;;;;;5071336;28;20146;-91
2021/07/11 05:37:05;;;;;;;;;;;17.10;99.90;;;;;;5047215;28;19920;-91
2021/07/11 05:39:31;;;;;;;;;;;17.10;99.90;;;;;;5084556;28;20450;-91
2021/07/11 05:41:57;;;;;;;;;;;17.10;99.90;;;;;;5052265;28;20088;-91
2021/07/11 05:44:22;;;;;;;;;;;17.10;99.90;;;;;;5067662;28;19943;-91
2021/07/11 05:46:48;;;;;;;;;;;17.20;99.90;;;;;;5034997;28;19961;-91
2021/07/11 05:49:14;;;;;;;;;;;17.20;99.90;;;;;;5051308;28;20684;-91
2021/07/11 05:51:40;;;;;;;;;;;17.20;99.90;;;;;;5067837;28;19925;-91
2021/07/11 05:54:05;;;;;;;;;;;17.20;99.90;;;;;;5050491;28;19935;-91
2021/07/11 05:56:31;;;;;;;;;;;17.30;99.90;;;;;;5067352;28;19960;-91
2021/07/11 05:58:57;;;;;;;;;;;17.30;99.90;;;;;;5034320;28;20400;-90
2021/07/11 06:01:23;;;;;;;;;;;17.30;99.90;;;;;;5050961;28;19948;-91
2021/07/11 06:03:48;;;;;;;;;;;17.30;99.90;;;;;;5067427;28;19921;-91
2021/07/11 06:06:14;;;;;;;;;;;17.40;99.90;;;;;;5056218;28;19925;-90
2021/07/11 06:08:40;;;;;;;;;;;17.40;99.90;;;;;;5070331;28;19931;-91
2021/07/11 06:11:05;;;;;;;;;;;17.40;99.90;;;;;;5104676;28;20296;-91
2021/07/11 06:13:31;;;;;;;;;;;17.40;99.90;;;;;;5087805;28;19921;-91
2021/07/11 06:15:57;;;;;;;;;;;17.40;99.90;;;;;;5104613;28;19924;-91
2021/07/11 06:18:22;;;;;;;;;;;17.40;99.90;;;;;;5104747;28;20062;-91
2021/07/11 06:20:48;;;;;;;;;;;17.50;99.90;;;;;;5087525;28;20368;-91
2021/07/11 06:23:14;;;;;;;;;;;17.50;99.90;;;;;;5088655;28;19925;-90
2021/07/11 06:25:40;;;;;;;;;;;17.50;99.90;;;;;;5074772;28;19971;-91
2021/07/11 06:28:06;;;;;;;;;;;17.60;99.90;;;;;;5074828;28;20015;-91
2021/07/11 06:30:32;;;;;;;;;;;17.60;99.90;;;;;;5075005;28;20467;-91
2021/07/11 06:32:58;;;;;;;;;;;17.60;99.90;;;;;;5075987;28;19924;-91
2021/07/11 06:35:24;;;;;;;;;;;17.60;99.90;;;;;;5074398;28;20050;-91
2021/07/11 06:37:50;;;;;;;;;;;17.60;99.90;;;;;;5076698;28;19964;-91
2021/07/11 06:40:17;;;;;;;;;;;17.60;99.90;;;;;;5054381;28;19944;-91
2021/07/11 06:42:43;;;;;;;;;;;17.60;99.90;;;;;;5054334;28;19967;-91
2021/07/11 06:45:10;;;;;;;;;;;17.70;99.90;;;;;;5037711;28;20380;-91
2021/07/11 06:47:36;;;;;;;;;;;17.70;99.90;;;;;;5071729;28;19921;-91
2021/07/11 06:50:03;;;;;;;;;;;17.70;99.90;;;;;;5053980;28;19933;-91
2021/07/11 06:52:29;;;;;;;;;;;17.70;99.90;;;;;;5074570;28;19927;-91
2021/07/11 06:54:55;;;;;;;;;;;17.80;99.90;;;;;;5056653;28;19925;-91
2021/07/11 06:57:21;;;;;;;;;;;17.80;99.90;;;;;;5073690;28;19924;-91
2021/07/11 06:59:47;;;;;;;;;;;17.80;99.90;;;;;;5081587;28;20383;-91
2021/07/11 07:02:13;;;;;;;;;;;17.80;99.90;;;;;;5074242;28;19925;-91
2021/07/11 07:04:38;;;;;;;;;;;17.90;99.90;;;;;;5057215;28;19924;-90
2021/07/11 07:07:04;;;;;;;;;;;17.90;99.90;;;;;;5069833;28;19920;-92
2021/07/11 07:09:30;;;;;;;;;;;17.90;99.90;;;;;;5075281;28;19925;-90
2021/07/11 07:11:56;;;;;;;;;;;17.90;99.90;;;;;;5074168;28;19950;-94
2021/07/11 07:14:21;;;;;;;;;;;18.00;99.90;;;;;;5090662;28;20391;-92
2021/07/11 07:16:47;;;;;;;;;;;18.00;99.90;;;;;;5057838;28;19931;-92
2021/07/11 07:19:13;;;;;;;;;;;18.00;99.90;;;;;;5057167;28;19926;-92
2021/07/11 07:21:39;;;;;;;;;;;18.00;99.90;;;;;;5057523;28;20323;-91
2021/07/11 07:24:04;;;;;;;;;;;18.10;99.90;;;;;;5073664;28;19930;-92
2021/07/11 07:26:30;;;;;;;;;;;18.10;99.90;;;;;;5073512;28;19924;-92
2021/07/11 07:28:56;;;;;;;;;;;18.10;99.90;;;;;;5073778;28;19955;-91
2021/07/11 07:31:22;;;;;;;;;;;18.10;99.90;;;;;;5073824;28;19925;-92
2021/07/11 07:33:47;;;;;;;;;;;18.10;99.90;;;;;;5090501;28;19960;-91
2021/07/11 07:36:13;;;;;;;;;;;18.20;99.90;;;;;;5089469;28;19931;-92
2021/07/11 07:38:39;;;;;;;;;;;18.10;99.90;;;;;;5071639;28;19936;-92
2021/07/11 07:41:04;;;;;;;;;;;18.20;99.90;;;;;;5089997;28;19924;-92
2021/07/11 07:43:30;;;;;;;;;;;18.20;99.90;;;;;;5073602;28;20352;-91
2021/07/11 07:45:56;;;;;;;;;;;18.20;99.90;;;;;;5073377;28;19928;-92
2021/07/11 07:48:21;;;;;;;;;;;18.30;99.90;;;;;;5090669;28;19964;-92
2021/07/11 07:50:48;;;;;;;;;;;18.30;99.90;;;;;;5089972;28;20344;-92
2021/07/11 07:53:13;;;;;;;;;;;18.30;99.90;;;;;;5107416;28;19975;-92
2021/07/11 07:55:39;;;;;;;;;;;18.30;99.90;;;;;;5056546;28;19929;-91
2021/07/11 07:58:05;;;;;;;;;;;18.40;99.90;;;;;;5072448;28;19925;-91
2021/07/11 08:00:31;;;;;;;;;;;18.50;99.90;;;;;;5049791;28;19924;-92
2021/07/11 08:02:59;;;;;;;;;;;18.50;99.90;;;;;;5062862;28;19920;-92
2021/07/11 08:05:25;;;;;;;;;;;18.50;99.90;;;;;;5082004;28;20043;-93
2021/07/11 08:07:51;;;;;;;;;;;18.60;99.90;;;;;;5071075;28;19970;-92
2021/07/11 08:10:16;;;;;;;;;;;18.60;99.90;;;;;;5054245;28;19928;-93
2021/07/11 08:12:42;;;;;;;;;;;18.60;99.90;;;;;;5070897;28;20338;-93
2021/07/11 08:15:16;;;;;;;;;;;18.70;99.90;;;;;;5074884;28;19931;-92
2021/07/11 08:17:49;;;;;;;;;;;18.70;99.90;;;;;;5051896;28;19924;-93
2021/07/11 08:20:17;;;;;;;;;;;18.70;99.90;;;;;;5034785;28;19928;-91
2021/07/11 08:22:42;;;;;;;;;;;18.80;99.90;;;;;;5085246;28;19975;-92
2021/07/11 08:25:10;;;;;;;;;;;18.80;99.90;;;;;;5018925;28;19925;-92
2021/07/11 08:27:37;;;;;;;;;;;18.90;99.90;;;;;;5052274;28;19960;-92
2021/07/11 08:30:07;;;;;;;;;;;18.90;99.90;;;;;;5051263;28;19947;-93
2021/07/11 08:32:32;;;;;;;;;;;19.00;99.90;;;;;;5086565;28;19927;-93
2021/07/11 08:34:58;;;;;;;;;;;19.00;99.90;;;;;;5070355;28;19925;-93
2021/07/11 08:37:24;;;;;;;;;;;19.00;99.90;;;;;;5070538;28;20015;-92
2021/07/11 08:39:53;;;;;;;;;;;19.10;99.90;;;;;;5087182;28;19935;-92
2021/07/11 08:42:19;;;;;;;;;;;19.10;99.90;;;;;;5069721;28;19951;-91
2021/07/11 08:44:49;;;;;;;;;;;19.10;99.90;;;;;;5069527;28;19931;-92
2021/07/11 08:47:19;;;;;;;;;;;19.20;99.90;;;;;;5092551;28;19969;-91
2021/07/11 08:49:53;;;;;;;;;;;19.20;99.90;;;;;;5069633;28;19924;-91
2021/07/11 08:52:21;;;;;;;;;;;19.20;99.90;;;;;;5067788;28;19932;-92
2021/07/11 08:54:47;;;;;;;;;;;19.30;99.90;;;;;;5070116;28;20335;-92
2021/07/11 08:57:13;;;;;;;;;;;19.20;99.90;;;;;;5087320;28;19925;-92
2021/07/11 08:59:40;;;;;;;;;;;19.30;99.90;;;;;;5068368;28;19924;-92
2021/07/11 09:02:06;;;;;;;;;;;19.40;99.90;;;;;;5065064;28;19982;-90
2021/07/11 09:04:48;;;;;;;;;;;19.40;99.90;;;;;;5017069;28;20380;-91
2021/07/11 09:07:21;;;;;;;;;;;19.40;99.90;;;;;;5067202;28;19929;-91
2021/07/11 09:09:56;;;;;;;;;;;19.40;99.90;;;;;;5070529;28;19932;-92
2021/07/11 09:12:23;;;;;;;;;;;19.40;99.90;;;;;;5070976;28;19924;-91
2021/07/11 09:14:49;;;;;;;;;;;19.40;99.90;;;;;;5064233;28;19935;-92
2021/07/11 09:17:17;;;;;;;;;;;19.40;99.90;;;;;;5053712;28;20398;-92
2021/07/11 09:19:44;;;;;;;;;;;19.50;99.90;;;;;;5068492;28;19916;-92
2021/07/11 09:22:11;;;;;;;;;;;19.50;99.90;;;;;;5064319;28;19920;-91
2021/07/11 09:24:38;;;;;;;;;;;19.60;99.90;;;;;;5085375;28;19920;-91
2021/07/11 09:27:11;;;;;;;;;;;19.60;99.90;;;;;;5070306;28;19925;-92
2021/07/11 09:29:38;;;;;;;;;;;19.60;99.90;;;;;;5086045;28;19920;-91
2021/07/11 09:32:04;;;;;;;;;;;19.70;99.90;;;;;;5084952;28;19932;-92
2021/07/11 09:34:30;;;;;;;;;;;19.70;99.90;;;;;;5069314;28;19973;-93
2021/07/11 09:37:02;;;;;;;;;;;19.80;99.90;;;;;;5086397;28;20031;-92
2021/07/11 09:39:28;;;;;;;;;;;19.80;99.90;;;;;;5069691;28;19931;-92
2021/07/11 09:41:54;;;;;;;;;;;19.80;99.90;;;;;;5068888;28;20715;-93
2021/07/11 09:44:19;;;;;;;;;;;19.90;99.90;;;;;;5070095;28;19928;-91
2021/07/11 09:46:45;;;;;;;;;;;19.90;99.90;;;;;;5070424;28;19971;-91
2021/07/11 09:49:17;;;;;;;;;;;19.90;99.90;;;;;;5071050;28;19916;-90
2021/07/11 09:51:43;;;;;;;;;;;19.90;99.90;;;;;;5067913;28;20380;-92
2021/07/11 09:54:10;;;;;;;;;;;20.00;99.90;;;;;;5069384;28;19935;-91
2021/07/11 09:56:37;;;;;;;;;;;20.00;99.90;;;;;;5086225;28;19978;-91
2021/07/11 09:59:04;;;;;;;;;;;20.00;99.90;;;;;;5068604;28;19955;-91
2021/07/11 10:01:31;;;;;;;;;;;20.10;99.90;;;;;;5059419;28;20036;-91
2021/07/11 10:04:00;;;;;;;;;;;20.10;99.90;;;;;;5069425;28;19921;-91
2021/07/11 10:06:26;;;;;;;;;;;20.00;99.90;;;;;;5086026;28;19924;-91
2021/07/11 10:08:52;;;;;;;;;;;20.00;99.90;;;;;;5069425;28;19950;-91
2021/07/11 10:11:18;;;;;;;;;;;20.00;99.90;;;;;;5085630;28;19920;-91
2021/07/11 10:13:44;;;;;;;;;;;20.00;99.90;;;;;;5085219;28;19921;-92
2021/07/11 10:16:11;;;;;;;;;;;20.00;99.90;;;;;;5068073;28;19971;-92
2021/07/11 10:18:38;;;;;;;;;;;20.00;99.90;;;;;;5069673;28;19921;-93
2021/07/11 10:21:04;;;;;;;;;;;20.00;99.90;;;;;;5084665;28;19920;-92
2021/07/11 10:23:34;;;;;;;;;;;20.10;99.90;;;;;;5065483;28;19950;-92
2021/07/11 10:26:02;;;;;;;;;;;20.10;99.90;;;;;;5068659;28;20011;-92
2021/07/11 10:28:32;;;;;;;;;;;20.10;99.90;;;;;;5085743;28;19920;-92
2021/07/11 10:30:58;;;;;;;;;;;20.10;99.90;;;;;;5067798;28;20402;-92
2021/07/11 10:33:25;;;;;;;;;;;20.10;99.90;;;;;;5068260;28;19946;-93
2021/07/11 10:35:53;;;;;;;;;;;20.10;99.90;;;;;;5084861;28;19935;-92
2021/07/11 10:38:25;;;;;;;;;;;20.20;99.90;;;;;;5068425;28;19925;-92
2021/07/11 10:40:51;;;;;;;;;;;20.20;99.90;;;;;;5066589;28;20774;-92
2021/07/11 10:43:17;;;;;;;;;;;20.20;99.90;;;;;;5068610;28;20332;-91
2021/07/11 10:45:46;;;;;;;;;;;20.20;99.90;;;;;;5068418;28;20403;-92
2021/07/11 10:48:13;;;;;;;;;;;20.20;99.90;;;;;;5066655;28;20287;-92
2021/07/11 10:50:42;;;;;;;;;;;20.20;99.90;;;;;;5068962;28;19974;-92
2021/07/11 10:53:17;;;;;;;;;;;20.20;99.90;;;;;;5066740;28;19959;-92
2021/07/11 10:55:44;;;;;;;;;;;20.20;99.90;;;;;;5069298;28;19924;-92
2021/07/11 10:58:14;;;;;;;;;;;20.20;99.90;;;;;;5081150;28;20431;-92
2021/07/11 11:00:40;;;;;;;;;;;20.20;99.90;;;;;;5084188;28;19935;-92
2021/07/11 11:03:18;;;;;;;;;;;20.30;99.90;;;;;;5067807;28;19999;-92
2021/07/11 11:05:44;;;;;;;;;;;20.20;99.90;;;;;;5068436;28;19920;-92
2021/07/11 11:08:11;;;;;;;;;;;20.20;99.90;;;;;;5084280;28;20302;-93
2021/07/11 11:10:38;;;;;;;;;;;20.20;99.90;;;;;;5071097;28;20333;-92
2021/07/11 11:13:12;;;;;;;;;;;20.20;99.90;;;;;;5069777;28;19966;-92
2021/07/11 11:15:38;;;;;;;;;;;20.20;99.90;;;;;;5070474;28;19974;-93
2021/07/11 11:18:20;;;;;;;;;;;20.20;99.90;;;;;;5071901;28;19928;-93
2021/07/11 11:20:54;;;;;;;;;;;20.20;99.90;;;;;;5088248;28;19925;-92
2021/07/11 11:23:20;;;;;;;;;;;20.20;99.90;;;;;;5072421;28;19924;-93
2021/07/11 11:25:47;;;;;;;;;;;20.20;99.90;;;;;;5055182;28;19924;-93
2021/07/11 11:28:13;;;;;;;;;;;20.20;99.90;;;;;;5071735;28;19932;-93
2021/07/11 11:30:41;;;;;;;;;;;20.20;99.90;;;;;;5088419;28;19996;-93
2021/07/11 11:33:10;;;;;;;;;;;20.20;99.90;;;;;;5088327;28;19924;-93
2021/07/11 11:35:36;;;;;;;;;;;20.20;99.90;;;;;;5088309;28;19928;-93
2021/07/11 11:38:03;;;;;;;;;;;20.30;99.90;;;;;;5048990;28;19928;-93
2021/07/11 11:40:30;;;;;;;;;;;20.30;99.90;;;;;;5086839;28;19920;-92
2021/07/11 11:42:56;;;;;;;;;;;20.30;99.90;;;;;;5067965;28;20023;-92
2021/07/11 11:45:28;;;;;;;;;;;20.40;99.90;;;;;;5074030;28;19920;-92
2021/07/11 11:48:03;;;;;;;;;;;20.50;99.90;;;;;;5066550;28;19923;-92
2021/07/11 11:50:29;;;;;;;;;;;20.60;99.90;;;;;;5104691;28;19920;-92
2021/07/11 11:53:24;;;;;;;;;;;20.70;99.90;;;;;;5087454;28;20113;-92
2021/07/11 11:55:52;;;;;;;;;;;20.80;99.90;;;;;;5045395;28;19928;-93
2021/07/11 11:58:24;;;;;;;;;;;20.90;99.90;;;;;;5096115;28;19921;-93
2021/07/11 12:01:00;;;;;;;;;;;21.00;99.90;;;;;;5077190;28;19978;-94
2021/07/11 12:03:29;;;;;;;;;;;21.00;99.90;;;;;;5086955;28;19932;-94
2021/07/11 12:06:01;;;;;;;;;;;21.00;99.90;;;;;;5093114;28;19931;-94
2021/07/11 12:08:28;;;;;;;;;;;21.10;99.90;;;;;;5066990;28;20300;-94
2021/07/11 12:10:58;;;;;;;;;;;21.10;99.90;;;;;;5066917;28;19928;-94
2021/07/11 12:13:25;;;;;;;;;;;21.10;99.90;;;;;;5082258;28;19935;-94
2021/07/11 12:16:11;;;;;;;;;;;;;;;;;;;;;
2021/07/11 12:18:47;;;;;;;;;;;21.10;99.90;;;;;;5099084;28;19924;-94
2021/07/11 12:21:23;;;;;;;;;;;21.10;99.90;;;;;;5067905;28;19960;-94
2021/07/11 12:23:59;;;;;;;;;;;21.10;99.90;;;;;;5096653;28;19931;-93
2021/07/11 12:26:28;;;;;;;;;;;21.10;99.90;;;;;;5049136;28;19970;-94
2021/07/11 12:29:02;;;;;;;;;;;21.10;99.90;;;;;;5052016;28;19924;-94
2021/07/11 12:31:32;;;;;;;;;;;21.10;99.90;;;;;;5052911;28;20002;-93
2021/07/11 12:34:04;;;;;;;;;;;21.00;99.90;;;;;;5067949;28;19924;-93
2021/07/11 12:36:36;;;;;;;;;;;21.00;99.90;;;;;;5059635;28;19940;-93
2021/07/11 12:39:13;;;;;;;;;;;21.00;99.90;;;;;;5067657;28;19924;-94
2021/07/11 12:41:39;;;;;;;;;;;20.90;99.90;;;;;;5066714;28;19927;-95
2021/07/11 12:44:05;;;;;;;;;;;20.90;99.90;;;;;;5065806;28;19924;-93
2021/07/11 12:46:35;;;;;;;;;;;20.90;99.90;;;;;;5036216;28;19924;-95
2021/07/11 12:49:11;;;;;;;;;;;20.90;99.90;;;;;;5061568;28;20461;-93
2021/07/11 12:51:42;;;;;;;;;;;20.90;99.90;;;;;;5052098;28;19924;-94
2021/07/11 12:54:16;;;;;;;;;;;20.90;99.90;;;;;;5095054;28;20031;-94
2021/07/11 12:57:02;;;;;;;;;;;20.90;99.90;;;;;;5047261;28;19928;-94
2021/07/11 12:59:39;;;;;;;;;;;20.90;99.90;;;;;;5051588;28;19983;-94
2021/07/11 13:02:11;;;;;;;;;;;20.80;99.90;;;;;;5080836;28;19924;-94
2021/07/11 13:04:44;;;;;;;;;;;20.90;99.90;;;;;;5080676;28;20010;-94
2021/07/11 13:07:20;;;;;;;;;;;20.90;99.90;;;;;;5064611;28;19933;-94
2021/07/11 13:09:48;;;;;;;;;;;20.90;99.90;;;;;;5049383;28;19925;-95
2021/07/11 13:12:25;;;;;;;;;;;20.80;99.90;;;;;;5093860;28;20383;-94
2021/07/11 13:14:50;;;;;;;;;;;20.80;99.90;;;;;;5049607;28;19924;-95
2021/07/11 13:17:20;;;;;;;;;;;20.80;99.90;;;;;;5083693;28;19935;-94
2021/07/11 13:19:46;;;;;;;;;;;20.80;99.90;;;;;;5067038;28;20021;-94
2021/07/11 13:22:12;;;;;;;;;;;20.80;99.90;;;;;;5060805;28;19927;-93
2021/07/11 13:24:37;;;;;;;;;;;20.70;99.90;;;;;;5078007;28;20334;-90
2021/07/11 13:27:03;;;;;;;;;;;20.70;99.90;;;;;;5088339;28;20371;-93
2021/07/11 13:29:32;;;;;;;;;;;20.70;99.90;;;;;;5083296;28;19928;-93
2021/07/11 13:31:58;;;;;;;;;;;20.70;99.90;;;;;;5050020;28;19978;-92
2021/07/11 13:34:23;;;;;;;;;;;20.70;99.90;;;;;;5083594;28;19921;-93
2021/07/11 13:36:49;;;;;;;;;;;20.70;99.90;;;;;;5035278;28;19928;-93
2021/07/11 13:39:18;;;;;;;;;;;20.60;99.90;;;;;;5085428;28;19930;-92
2021/07/11 13:41:44;;;;;;;;;;;20.60;99.90;;;;;;5052248;28;19928;-92
2021/07/11 13:44:09;;;;;;;;;;;20.60;99.90;;;;;;5085435;28;19928;-93
2021/07/11 13:46:35;;;;;;;;;;;20.60;99.90;;;;;;5086019;28;20372;-91
2021/07/11 13:49:01;;;;;;;;;;;20.60;99.90;;;;;;5086111;28;19924;-93
2021/07/11 13:51:27;;;;;;;;;;;20.60;99.90;;;;;;5053968;28;19970;-93
2021/07/11 13:53:53;;;;;;;;;;;20.60;99.90;;;;;;5054105;28;19924;-93
2021/07/11 13:56:19;;;;;;;;;;;20.60;99.90;;;;;;5052153;28;19928;-92
2021/07/11 13:58:45;;;;;;;;;;;20.70;99.90;;;;;;5067912;28;19954;-92
2021/07/11 14:01:11;;;;;;;;;;;20.70;99.90;;;;;;5064019;28;19931;-92
2021/07/11 14:03:37;;;;;;;;;;;20.80;99.90;;;;;;5064660;28;19925;-92
2021/07/11 14:06:02;;;;;;;;;;;20.80;99.90;;;;;;5064851;28;19956;-91
2021/07/11 14:08:30;;;;;;;;;;;20.80;99.90;;;;;;5049820;28;19928;-92
2021/07/11 14:11:00;;;;;;;;;;;20.90;99.90;;;;;;5050993;28;20043;-92
2021/07/11 14:13:25;;;;;;;;;;;20.90;99.90;;;;;;5067591;28;19955;-92
2021/07/11 14:15:51;;;;;;;;;;;20.90;99.90;;;;;;5051518;28;19982;-91
2021/07/11 14:18:18;;;;;;;;;;;20.90;99.90;;;;;;5050850;28;19929;-92
2021/07/11 14:20:43;;;;;;;;;;;20.90;99.90;;;;;;5051005;28;19935;-92